Time;durP1;ratioP1;P1;durP2;ratioP2;P2;SDS_P1;SDS_P2;PMS_P1;PMS_P2;Temp;Humidity;BMP_temperature;BMP_pressure;BME280_temperature;BME280_humidity;BME280_pressure;Samples;Min_cycle;Max_cycle;Signal;HPM_P1;HPM_P2
2023/10/06 00:01:21;;;;;;;4.73;3.43;;;18.30;93.80;;;;;;4948251;28;20825;-70
2023/10/06 00:03:57;;;;;;;4.30;3.60;;;18.30;93.80;;;;;;4963968;28;20449;-70
2023/10/06 00:06:28;;;;;;;5.73;3.57;;;18.30;93.80;;;;;;4965847;28;20434;-70
2023/10/06 00:08:57;;;;;;;7.23;3.80;;;18.30;93.80;;;;;;4963803;28;20427;-71
2023/10/06 00:11:29;;;;;;;3.90;3.47;;;18.30;93.80;;;;;;4947969;28;20433;-71
2023/10/06 00:14:01;;;;;;;5.53;3.53;;;18.30;93.80;;;;;;4963693;28;20449;-69
2023/10/06 00:16:33;;;;;;;3.70;3.10;;;18.30;93.80;;;;;;4947386;28;20458;-70
2023/10/06 00:19:11;;;;;;;4.53;3.83;;;18.30;93.80;;;;;;4963395;28;20425;-71
2023/10/06 00:21:47;;;;;;;6.17;3.57;;;18.30;93.80;;;;;;4965095;28;20837;-71
2023/10/06 00:24:15;;;;;;;4.43;4.03;;;18.30;93.80;;;;;;4966424;28;20495;-70
2023/10/06 00:26:47;;;;;;;4.37;3.27;;;18.30;93.80;;;;;;4966118;28;20463;-70
2023/10/06 00:29:23;;;;;;;3.67;3.30;;;18.20;93.80;;;;;;4966885;28;20816;-70
2023/10/06 00:31:49;;;;;;;4.03;3.63;;;18.20;93.80;;;;;;4934358;28;20841;-70
2023/10/06 00:34:30;;;;;;;6.30;3.90;;;18.20;93.70;;;;;;4966756;28;20427;-70
2023/10/06 00:37:01;;;;;;;3.93;3.50;;;18.20;93.70;;;;;;4950066;28;20436;-70
2023/10/06 00:39:30;;;;;;;5.20;3.47;;;18.20;93.70;;;;;;4950210;28;20440;-71
2023/10/06 00:42:04;;;;;;;5.77;3.63;;;18.20;93.80;;;;;;4983661;28;20481;-70
2023/10/06 00:44:32;;;;;;;4.83;3.57;;;18.20;93.80;;;;;;4950520;28;20504;-71
2023/10/06 00:47:05;;;;;;;3.97;3.57;;;18.20;93.80;;;;;;4950043;28;20484;-71
2023/10/06 00:49:34;;;;;;;5.10;3.80;;;18.20;93.70;;;;;;4966074;28;20412;-71
2023/10/06 00:52:06;;;;;;;5.17;3.90;;;18.20;93.70;;;;;;4965988;28;20432;-70
2023/10/06 00:54:37;;;;;;;5.13;3.60;;;18.20;93.80;;;;;;4950337;28;20495;-70
2023/10/06 00:57:08;;;;;;;4.37;3.97;;;18.20;93.80;;;;;;4966252;28;20444;-70
2023/10/06 00:59:37;;;;;;;4.47;3.50;;;18.20;93.80;;;;;;4949394;28;20945;-71
2023/10/06 01:02:09;;;;;;;5.20;3.50;;;18.10;93.70;;;;;;4965411;28;20987;-70
2023/10/06 01:04:45;;;;;;;4.33;3.93;;;18.10;93.70;;;;;;4966123;28;20479;-70
2023/10/06 01:07:13;;;;;;;4.07;3.67;;;18.10;93.70;;;;;;4965718;28;20443;-70
2023/10/06 01:09:56;;;;;;;4.53;3.43;;;18.10;93.70;;;;;;4965815;28;20519;-71
2023/10/06 01:12:31;;;;;;;4.43;3.97;;;18.10;93.70;;;;;;4949622;28;20518;-70
2023/10/06 01:15:16;;;;;;;4.77;4.03;;;18.10;93.70;;;;;;4965775;28;20440;-71
2023/10/06 01:17:47;;;;;;;3.97;3.67;;;18.10;93.70;;;;;;4949192;28;20435;-70
2023/10/06 01:20:40;;;;;;;4.80;3.90;;;18.10;93.70;;;;;;4965524;28;20520;-70
2023/10/06 01:23:17;;;;;;;4.50;3.90;;;18.10;93.70;;;;;;4965216;28;20432;-70
2023/10/06 01:25:50;;;;;;;7.33;3.60;;;18.10;93.70;;;;;;4965217;28;20458;-71
2023/10/06 01:28:23;;;;;;;4.63;3.70;;;18.10;93.70;;;;;;4965039;28;20451;-71
2023/10/06 01:30:57;;;;;;;5.97;4.17;;;18.10;93.70;;;;;;4982867;28;20557;-71
2023/10/06 01:33:27;;;;;;;3.97;3.60;;;18.10;93.70;;;;;;4965485;28;20430;-70
2023/10/06 01:35:55;;;;;;;4.50;3.67;;;18.10;93.70;;;;;;4950136;28;20459;-70
2023/10/06 01:38:24;;;;;;;4.83;3.80;;;18.00;93.70;;;;;;4965296;28;20860;-70
2023/10/06 01:40:53;;;;;;;6.33;3.93;;;18.00;93.60;;;;;;4933356;28;20473;-71
2023/10/06 01:43:23;;;;;;;5.33;3.77;;;18.10;93.70;;;;;;4932756;28;20444;-71
2023/10/06 01:45:50;;;;;;;5.70;4.50;;;18.10;93.70;;;;;;4965664;28;20850;-70
2023/10/06 01:50:48;;;;;;;4.40;4.00;;;18.00;93.60;;;;;;4949237;28;20846;-71
2023/10/06 01:53:18;;;;;;;4.77;3.77;;;18.00;93.70;;;;;;4982044;28;20412;-71
2023/10/06 01:55:53;;;;;;;5.20;4.00;;;18.00;93.60;;;;;;4964878;28;20579;-70
2023/10/06 01:58:27;;;;;;;5.80;3.57;;;18.00;93.70;;;;;;4982251;28;20486;-70
2023/10/06 02:00:53;;;;;;;8.43;3.80;;;18.00;93.70;;;;;;4948690;28;20915;-71
2023/10/06 02:03:21;;;;;;;4.00;3.60;;;18.00;93.70;;;;;;4965394;28;20432;-71
2023/10/06 02:05:55;;;;;;;4.10;3.70;;;18.00;93.60;;;;;;4965818;28;20448;-69
2023/10/06 02:08:26;;;;;;;4.47;3.30;;;18.00;93.60;;;;;;4949562;28;20424;-70
2023/10/06 02:10:55;;;;;;;4.13;3.70;;;18.00;93.60;;;;;;4933423;28;20441;-70
2023/10/06 02:13:25;;;;;;;5.13;3.70;;;18.00;93.60;;;;;;4948358;28;20518;-70
2023/10/06 02:15:58;;;;;;;4.23;3.70;;;18.00;93.70;;;;;;4948376;28;20579;-71
2023/10/06 02:18:37;;;;;;;5.57;3.63;;;17.90;93.60;;;;;;4964506;28;20467;-71
2023/10/06 02:21:11;;;;;;;4.73;4.23;;;17.90;93.60;;;;;;4948763;28;20455;-70
2023/10/06 02:23:41;;;;;;;4.67;3.87;;;17.90;93.60;;;;;;4948672;28;20506;-70
2023/10/06 02:26:12;;;;;;;5.80;4.17;;;17.90;93.60;;;;;;4982337;28;20451;-70
2023/10/06 02:28:44;;;;;;;7.03;4.70;;;17.90;93.60;;;;;;4964615;28;20424;-70
2023/10/06 02:31:12;;;;;;;3.73;3.43;;;17.90;93.70;;;;;;4964518;28;20529;-71
2023/10/06 02:33:41;;;;;;;4.93;3.90;;;17.90;93.70;;;;;;4948520;28;20433;-70
2023/10/06 02:36:23;;;;;;;4.80;3.90;;;17.90;93.70;;;;;;4964957;28;20448;-70
2023/10/06 02:38:57;;;;;;;5.90;3.40;;;17.90;93.60;;;;;;4948160;28;20971;-70
2023/10/06 02:41:25;;;;;;;4.00;3.60;;;17.90;93.60;;;;;;4964566;28;20762;-71
2023/10/06 02:44:05;;;;;;;5.50;3.53;;;17.90;93.70;;;;;;4948460;28;20467;-71
2023/10/06 02:46:36;;;;;;;3.83;3.33;;;17.80;93.60;;;;;;4982247;28;20740;-71
2023/10/06 02:49:09;;;;;;;6.60;4.47;;;17.90;93.60;;;;;;4965117;28;20427;-70
2023/10/06 02:51:47;;;;;;;5.33;3.90;;;17.80;93.60;;;;;;4982310;28;20435;-70
2023/10/06 02:56:47;;;;;;;4.30;3.90;;;17.80;93.60;;;;;;4968018;28;20455;-70
2023/10/06 02:59:21;;;;;;;4.73;3.90;;;17.80;93.60;;;;;;4967875;28;20502;-70
2023/10/06 03:02:06;;;;;;;4.53;4.10;;;17.80;93.60;;;;;;4967731;28;20462;-70
2023/10/06 03:04:43;;;;;;;5.40;3.77;;;17.80;93.60;;;;;;4951982;28;20816;-70
2023/10/06 03:07:14;;;;;;;4.77;4.07;;;17.80;93.60;;;;;;4936133;28;20639;-70
2023/10/06 03:09:45;;;;;;;3.93;3.63;;;17.80;93.60;;;;;;4985887;28;20442;-70
2023/10/06 03:15:01;;;;;;;4.30;3.90;;;17.80;93.60;;;;;;4977360;28;21116;-70
2023/10/06 03:17:29;;;;;;;3.83;3.40;;;17.80;93.60;;;;;;4951113;28;20895;-70
2023/10/06 03:20:41;;;;;;;5.67;3.90;;;17.80;93.60;;;;;;4950857;28;20905;-70
2023/10/06 03:22:50;;;;;;;5.97;4.30;;;17.80;93.60;;;;;;4982615;28;20551;-69
2023/10/06 03:25:27;;;;;;;7.93;4.10;;;17.70;93.60;;;;;;4951682;28;20548;-70
2023/10/06 03:27:57;;;;;;;4.63;4.07;;;17.70;93.50;;;;;;4952846;28;20439;-69
2023/10/06 03:30:28;;;;;;;4.70;4.30;;;17.70;93.50;;;;;;4968543;28;20950;-70
2023/10/06 03:32:58;;;;;;;4.30;3.50;;;17.70;93.50;;;;;;4952659;28;20440;-70
2023/10/06 03:35:48;;;;;;;6.20;3.87;;;17.70;93.50;;;;;;4937214;28;20551;-69
2023/10/06 03:46:10;;;;;;;5.93;4.20;;;17.70;93.50;;;;;;4970617;28;20471;-70
2023/10/06 03:48:43;;;;;;;4.77;4.20;;;17.70;93.50;;;;;;4954242;28;20423;-70
2023/10/06 03:51:09;;;;;;;4.23;3.80;;;17.70;93.60;;;;;;4968751;28;20439;-69
2023/10/06 03:53:38;;;;;;;4.13;3.70;;;17.60;93.50;;;;;;4951537;28;20428;-70
2023/10/06 03:56:06;;;;;;;4.60;4.20;;;17.60;93.50;;;;;;4967105;28;20458;-70
2023/10/06 03:58:35;;;;;;;4.03;3.70;;;17.70;93.50;;;;;;4950850;28;20454;-70
2023/10/06 04:01:07;;;;;;;6.80;4.77;;;17.70;93.50;;;;;;4966808;28;21100;-70
2023/10/06 04:03:33;;;;;;;5.43;4.40;;;17.60;93.50;;;;;;4966677;28;20452;-70
2023/10/06 04:06:03;;;;;;;5.07;3.77;;;17.70;93.50;;;;;;4966020;28;20787;-70
2023/10/06 04:08:29;;;;;;;4.77;3.43;;;17.70;93.50;;;;;;4984436;28;20510;-70
2023/10/06 04:10:58;;;;;;;4.60;3.90;;;17.60;93.50;;;;;;4966986;28;20961;-70
2023/10/06 04:13:26;;;;;;;5.00;4.00;;;17.60;93.50;;;;;;4984406;28;20217;-70
2023/10/06 04:15:53;;;;;;;4.80;4.10;;;17.60;93.50;;;;;;4966429;28;20463;-70
2023/10/06 04:18:22;;;;;;;4.73;3.73;;;17.60;93.50;;;;;;4966867;28;20439;-70
2023/10/06 04:20:51;;;;;;;7.90;4.60;;;17.50;93.40;;;;;;4966240;28;21470;-70
2023/10/06 04:23:18;;;;;;;5.63;4.27;;;17.60;93.50;;;;;;4984097;28;20842;-70
2023/10/06 04:25:47;;;;;;;5.53;4.03;;;17.60;93.40;;;;;;4950120;28;20461;-70
2023/10/06 04:28:15;;;;;;;4.90;4.50;;;17.60;93.40;;;;;;4966092;28;20526;-70
2023/10/06 04:30:45;;;;;;;4.00;3.60;;;17.60;93.40;;;;;;4951369;28;20440;-70
2023/10/06 04:33:15;;;;;;;5.67;4.87;;;17.60;93.40;;;;;;4984459;28;20706;-70
2023/10/06 04:35:47;;;;;;;5.10;3.67;;;17.60;93.50;;;;;;4966086;28;20546;-70
2023/10/06 04:38:15;;;;;;;4.10;3.70;;;17.50;93.40;;;;;;4984422;28;20427;-69
2023/10/06 04:40:42;;;;;;;4.90;3.73;;;17.50;93.40;;;;;;4983904;28;20471;-70
2023/10/06 04:43:09;;;;;;;6.23;4.17;;;17.50;93.50;;;;;;4967133;28;20436;-70
2023/10/06 04:45:38;;;;;;;5.40;4.30;;;17.50;93.40;;;;;;4949153;28;20611;-71
2023/10/06 04:48:10;;;;;;;4.30;3.90;;;17.50;93.50;;;;;;4982960;28;20426;-71
2023/10/06 04:50:39;;;;;;;4.13;3.73;;;17.50;93.50;;;;;;4949279;28;20605;-71
2023/10/06 04:53:11;;;;;;;5.93;4.50;;;17.50;93.50;;;;;;4964798;28;20464;-71
2023/10/06 04:55:41;;;;;;;5.73;4.47;;;17.50;93.50;;;;;;4981736;28;20466;-71
2023/10/06 04:58:15;;;;;;;5.40;3.63;;;17.50;93.50;;;;;;4964617;28;20461;-71
2023/10/06 05:00:49;;;;;;;5.50;4.57;;;17.40;93.40;;;;;;4964794;28;20476;-71
2023/10/06 05:03:19;;;;;;;4.77;4.40;;;17.50;93.50;;;;;;4982590;28;21003;-71
2023/10/06 05:05:46;;;;;;;5.17;3.90;;;17.40;93.40;;;;;;4982460;28;21017;-71
2023/10/06 05:08:14;;;;;;;4.77;3.90;;;17.50;93.40;;;;;;4948739;28;20872;-71
2023/10/06 05:10:41;;;;;;;4.10;3.70;;;17.40;93.30;;;;;;4982357;28;20513;-71
2023/10/06 05:13:08;;;;;;;6.13;4.33;;;17.40;93.40;;;;;;4964855;28;20526;-71
2023/10/06 05:15:41;;;;;;;4.60;4.20;;;17.40;93.30;;;;;;4931624;28;20476;-71
2023/10/06 05:18:12;;;;;;;4.80;4.30;;;17.40;93.40;;;;;;4979951;28;21047;-71
2023/10/06 05:20:38;;;;;;;5.27;4.10;;;17.40;93.70;;;;;;4964569;28;20468;-71
2023/10/06 05:23:14;;;;;;;4.83;4.30;;;17.40;93.40;;;;;;4965356;28;20851;-71
2023/10/06 05:25:44;;;;;;;4.40;3.93;;;17.40;93.40;;;;;;4962860;28;20475;-71
2023/10/06 05:28:11;;;;;;;4.77;3.93;;;17.30;93.40;;;;;;4964161;28;21142;-72
2023/10/06 05:30:42;;;;;;;5.07;3.90;;;17.40;93.40;;;;;;4947827;28;20463;-71
2023/10/06 05:33:07;;;;;;;6.43;3.63;;;17.40;93.40;;;;;;4962970;28;20612;-71
2023/10/06 05:35:38;;;;;;;3.93;3.53;;;17.40;93.40;;;;;;4946474;28;20464;-72
2023/10/06 05:38:08;;;;;;;3.97;3.67;;;17.40;93.40;;;;;;4962282;28;20494;-71
2023/10/06 05:40:37;;;;;;;6.90;3.80;;;17.40;93.40;;;;;;4962981;28;20471;-71
2023/10/06 05:43:11;;;;;;;5.10;4.53;;;17.40;93.40;;;;;;4979745;28;20427;-71
2023/10/06 05:45:57;;;;;;;4.93;4.43;;;17.40;93.40;;;;;;4978756;28;21238;-71
2023/10/06 05:48:27;;;;;;;4.30;3.83;;;17.30;93.30;;;;;;4979241;28;20432;-72
2023/10/06 05:51:01;;;;;;;5.53;4.17;;;17.30;93.40;;;;;;4945199;28;20440;-71
2023/10/06 05:53:34;;;;;;;5.03;4.50;;;17.30;93.40;;;;;;4961671;28;20530;-71
2023/10/06 05:56:02;;;;;;;5.10;4.70;;;17.30;93.40;;;;;;4945265;28;20466;-71
2023/10/06 05:58:30;;;;;;;4.80;4.00;;;17.30;93.40;;;;;;4946370;28;21066;-71
2023/10/06 06:01:09;;;;;;;4.13;3.60;;;17.30;93.40;;;;;;4980199;28;20526;-71
2023/10/06 06:03:44;;;;;;;4.73;3.70;;;17.30;93.30;;;;;;4963169;28;20458;-71
2023/10/06 06:06:12;;;;;;;6.27;4.27;;;17.30;93.20;;;;;;4962220;28;20483;-71
2023/10/06 06:08:40;;;;;;;3.90;3.50;;;17.30;93.30;;;;;;4947018;28;20456;-71
2023/10/06 06:11:09;;;;;;;4.13;3.73;;;17.30;93.30;;;;;;4962599;28;20427;-71
2023/10/06 06:13:38;;;;;;;3.83;3.53;;;17.30;93.20;;;;;;4947209;28;20477;-71
2023/10/06 06:16:08;;;;;;;5.70;4.00;;;17.30;93.20;;;;;;4946145;28;20541;-71
2023/10/06 06:18:42;;;;;;;4.37;3.63;;;17.30;93.30;;;;;;4979630;28;20424;-71
2023/10/06 06:21:12;;;;;;;7.10;4.30;;;17.30;93.40;;;;;;4979368;28;20475;-72
2023/10/06 06:23:38;;;;;;;4.70;4.30;;;17.20;93.20;;;;;;4980808;28;20461;-71
2023/10/06 06:26:04;;;;;;;8.83;4.37;;;17.20;93.30;;;;;;4962977;28;20465;-72
2023/10/06 06:28:33;;;;;;;5.50;3.77;;;17.20;93.30;;;;;;4946372;28;20432;-71
2023/10/06 06:31:04;;;;;;;4.40;4.00;;;17.20;93.30;;;;;;4964773;28;20956;-71
2023/10/06 06:33:35;;;;;;;4.40;3.73;;;17.20;93.30;;;;;;4965855;28;20967;-71
2023/10/06 06:36:01;;;;;;;5.13;3.93;;;17.20;93.40;;;;;;4965701;28;20490;-71
2023/10/06 06:38:28;;;;;;;4.70;3.73;;;17.20;93.40;;;;;;4983389;28;20506;-71
2023/10/06 06:40:54;;;;;;;9.93;4.30;;;17.20;93.30;;;;;;4984653;28;20506;-71
2023/10/06 06:43:24;;;;;;;4.90;4.50;;;17.20;93.30;;;;;;4949724;28;20432;-72
2023/10/06 06:45:54;;;;;;;5.93;3.40;;;17.30;93.40;;;;;;4949316;28;20514;-71
2023/10/06 06:48:20;;;;;;;7.63;3.90;;;17.20;93.40;;;;;;4964224;28;20462;-71
2023/10/06 06:50:52;;;;;;;4.70;4.00;;;17.20;93.30;;;;;;4958386;28;20533;-71
2023/10/06 06:53:19;;;;;;;4.83;3.80;;;17.20;93.40;;;;;;4964543;28;20882;-71
2023/10/06 06:55:49;;;;;;;5.20;4.23;;;17.20;93.40;;;;;;4982253;28;20828;-72
2023/10/06 06:58:16;;;;;;;4.20;3.77;;;17.20;93.50;;;;;;4983404;28;20450;-72
2023/10/06 07:00:43;;;;;;;5.50;5.00;;;17.10;93.50;;;;;;4957815;28;20575;-71
2023/10/06 07:03:10;;;;;;;5.80;5.20;;;17.30;93.50;;;;;;4981599;28;20466;-71
2023/10/06 07:05:39;;;;;;;4.03;3.53;;;17.20;93.40;;;;;;4980226;28;20463;-72
2023/10/06 07:08:11;;;;;;;4.80;4.30;;;17.20;93.40;;;;;;4959296;28;20446;-72
2023/10/06 07:10:38;;;;;;;6.83;3.80;;;17.10;93.40;;;;;;4966294;28;20554;-71
2023/10/06 07:13:07;;;;;;;5.17;4.00;;;17.20;93.40;;;;;;4944516;28;20480;-72
2023/10/06 07:15:33;;;;;;;5.10;3.80;;;17.10;93.40;;;;;;4964584;28;20482;-71
2023/10/06 07:18:00;;;;;;;6.00;4.33;;;17.20;93.50;;;;;;4964533;28;20461;-71
2023/10/06 07:20:30;;;;;;;4.93;4.43;;;17.10;93.40;;;;;;4953984;28;20962;-72
2023/10/06 07:23:01;;;;;;;4.17;3.77;;;17.20;93.50;;;;;;4960895;28;20990;-72
2023/10/06 07:25:31;;;;;;;5.30;4.33;;;17.20;93.40;;;;;;4957883;28;20848;-72
2023/10/06 07:27:58;;;;;;;5.27;4.60;;;17.00;93.30;;;;;;4976992;23;20508;-72
2023/10/06 07:30:28;;;;;;;4.97;4.30;;;17.20;93.50;;;;;;4942245;29;20468;-72
2023/10/06 07:32:58;;;;;;;5.47;4.13;;;17.20;93.40;;;;;;4926093;29;20457;-72
2023/10/06 07:35:47;;;;;;;4.63;4.23;;;17.10;93.50;;;;;;4954363;28;20452;-73
2023/10/06 07:38:14;;;;;;;5.83;4.23;;;17.10;93.50;;;;;;4962529;28;20452;-73
2023/10/06 07:40:43;;;;;;;7.13;3.57;;;17.20;93.60;;;;;;4961562;28;20479;-73
2023/10/06 07:43:15;;;;;;;5.07;3.63;;;17.10;93.60;;;;;;4944670;28;20441;-73
2023/10/06 07:45:43;;;;;;;7.37;3.77;;;17.10;93.60;;;;;;4911713;28;20511;-72
2023/10/06 07:48:10;;;;;;;4.00;3.67;;;17.10;93.70;;;;;;4928359;28;20508;-73
2023/10/06 07:50:37;;;;;;;4.37;3.97;;;17.20;93.70;;;;;;4960712;28;20452;-72
2023/10/06 07:53:09;;;;;;;4.20;3.80;;;17.10;94.00;;;;;;4960001;28;21232;-72
2023/10/06 07:55:37;;;;;;;4.60;3.83;;;17.20;93.70;;;;;;4944502;28;20491;-72
2023/10/06 07:58:08;;;;;;;6.20;3.90;;;17.10;93.70;;;;;;4944207;28;20456;-71
2023/10/06 08:00:38;;;;;;;5.10;3.60;;;17.30;93.80;;;;;;4944156;28;20810;-72
2023/10/06 08:03:05;;;;;;;5.03;3.73;;;17.10;93.70;;;;;;4923365;28;20902;-74
2023/10/06 08:05:33;;;;;;;7.43;4.30;;;17.10;93.70;;;;;;4950641;28;20453;-73
2023/10/06 08:07:59;;;;;;;5.10;4.60;;;17.10;93.70;;;;;;4957809;28;21340;-72
2023/10/06 08:10:30;;;;;;;6.27;3.53;;;17.10;93.80;;;;;;4945159;28;20496;-69
2023/10/06 08:13:01;;;;;;;4.70;3.80;;;17.20;93.80;;;;;;4936613;28;20435;-69
2023/10/06 08:15:28;;;;;;;8.10;4.50;;;17.20;93.80;;;;;;4953823;28;20942;-68
2023/10/06 08:17:55;;;;;;;3.63;3.33;;;17.20;93.80;;;;;;4927589;28;20436;-68
2023/10/06 08:20:23;;;;;;;3.93;3.53;;;17.20;93.80;;;;;;4942995;28;20503;-69
2023/10/06 08:22:50;;;;;;;6.20;4.70;;;17.10;93.70;;;;;;4961005;28;20441;-68
2023/10/06 08:25:18;;;;;;;4.43;4.00;;;17.10;93.70;;;;;;4943887;28;20502;-68
2023/10/06 08:27:49;;;;;;;4.30;3.90;;;17.20;93.80;;;;;;4960519;28;20460;-69
2023/10/06 08:30:16;;;;;;;4.77;3.90;;;17.20;94.10;;;;;;4943993;28;20483;-69
2023/10/06 08:32:52;;;;;;;4.50;3.40;;;17.20;93.70;;;;;;4941630;28;20447;-68
2023/10/06 08:35:21;;;;;;;4.70;3.90;;;17.20;93.70;;;;;;4943514;28;21050;-69
2023/10/06 08:37:53;;;;;;;5.80;4.20;;;17.10;93.70;;;;;;4942980;28;20536;-68
2023/10/06 08:40:22;;;;;;;4.80;3.90;;;17.00;93.70;;;;;;4960976;28;20936;-69
2023/10/06 08:42:51;;;;;;;5.17;4.13;;;17.20;93.80;;;;;;4938626;28;20874;-68
2023/10/06 08:45:24;;;;;;;5.83;3.90;;;17.20;93.80;;;;;;4940672;28;20508;-68
2023/10/06 08:47:59;;;;;;;4.90;3.40;;;17.20;93.80;;;;;;4938377;28;20447;-69
2023/10/06 08:50:30;;;;;;;5.60;4.10;;;17.20;93.80;;;;;;4958838;28;20453;-69
2023/10/06 08:53:00;;;;;;;5.53;4.03;;;17.20;93.90;;;;;;4951528;28;20963;-69
2023/10/06 08:55:29;;;;;;;9.83;4.40;;;17.20;94.00;;;;;;4932034;28;20464;-69
2023/10/06 08:58:00;;;;;;;5.60;3.63;;;17.20;94.10;;;;;;4957929;28;20866;-69
2023/10/06 09:00:35;;;;;;;6.07;4.40;;;17.10;94.20;;;;;;4952653;28;20838;-69
2023/10/06 09:03:07;;;;;;;5.73;4.10;;;17.20;94.30;;;;;;4933491;28;20987;-71
2023/10/06 09:05:42;;;;;;;6.53;4.10;;;17.20;94.20;;;;;;4943400;28;20494;-70
2023/10/06 09:08:09;;;;;;;5.77;4.70;;;17.20;94.30;;;;;;4941549;28;21045;-70
2023/10/06 09:10:43;;;;;;;6.37;4.47;;;17.20;94.30;;;;;;4960957;28;20449;-70
2023/10/06 09:13:11;;;;;;;5.73;3.87;;;17.20;94.30;;;;;;4927827;28;20491;-70
2023/10/06 09:15:40;;;;;;;5.43;3.90;;;17.20;94.40;;;;;;4960382;28;20449;-69
2023/10/06 09:18:21;;;;;;;6.30;3.80;;;17.30;94.40;;;;;;4961178;28;20433;-70
2023/10/06 09:20:50;;;;;;;6.73;3.90;;;17.20;94.30;;;;;;4960701;28;20475;-70
2023/10/06 09:23:32;;;;;;;4.80;4.30;;;17.20;94.30;;;;;;4943321;28;20831;-70
2023/10/06 09:26:00;;;;;;;7.23;4.80;;;17.30;94.40;;;;;;4961094;28;20491;-70
2023/10/06 09:28:26;;;;;;;5.43;4.13;;;17.30;94.40;;;;;;4943581;28;20476;-70
2023/10/06 09:31:00;;;;;;;4.00;3.60;;;17.30;94.40;;;;;;4943038;28;20429;-70
2023/10/06 09:33:35;;;;;;;9.30;4.10;;;17.30;94.40;;;;;;4943722;28;20534;-70
2023/10/06 09:36:09;;;;;;;5.20;4.40;;;17.40;94.40;;;;;;4960641;28;20488;-69
2023/10/06 09:38:37;;;;;;;5.43;4.10;;;17.40;94.80;;;;;;4943603;28;20970;-70
2023/10/06 09:41:07;;;;;;;4.83;3.77;;;17.40;94.40;;;;;;4943537;28;20682;-70
2023/10/06 09:43:35;;;;;;;4.93;3.77;;;17.40;94.40;;;;;;4947409;28;20939;-69
2023/10/06 09:46:08;;;;;;;6.47;3.70;;;17.40;94.40;;;;;;4961358;28;21047;-70
2023/10/06 09:48:39;;;;;;;3.97;3.40;;;17.40;94.40;;;;;;4942984;28;20502;-69
2023/10/06 09:51:10;;;;;;;6.60;4.50;;;17.50;94.40;;;;;;4930128;28;20800;-69
2023/10/06 09:53:39;;;;;;;5.90;4.03;;;17.50;94.50;;;;;;4959527;28;20449;-69
2023/10/06 09:56:12;;;;;;;12.23;4.47;;;17.50;95.70;;;;;;4962866;28;20457;-69
2023/10/06 09:58:43;;;;;;;7.50;4.53;;;17.60;96.60;;;;;;4953999;28;20448;-69
2023/10/06 10:01:12;;;;;;;7.37;4.03;;;17.70;96.90;;;;;;4930140;28;20561;-70
2023/10/06 10:03:39;;;;;;;6.13;4.23;;;17.70;96.60;;;;;;4947135;28;20903;-70
2023/10/06 10:06:05;;;;;;;9.40;4.30;;;17.80;96.20;;;;;;4948360;28;20543;-70
2023/10/06 10:08:41;;;;;;;5.50;4.90;;;17.90;95.80;;;;;;4948382;28;20461;-72
2023/10/06 10:11:28;;;;;;;7.20;5.50;;;17.90;95.50;;;;;;4948310;28;20452;-70
2023/10/06 10:13:58;;;;;;;13.20;4.30;;;18.00;95.30;;;;;;4947235;28;20544;-70
2023/10/06 10:17:02;;;;;;;5.80;4.37;;;18.00;95.10;;;;;;4964218;28;20824;-70
2023/10/06 10:19:31;;;;;;;8.43;3.87;;;18.10;94.90;;;;;;4964879;28;20433;-70
2023/10/06 10:22:03;;;;;;;6.97;4.67;;;18.00;94.70;;;;;;4931061;28;20479;-66
2023/10/06 10:24:31;;;;;;;6.13;4.00;;;18.00;94.50;;;;;;4962700;28;20536;-67
2023/10/06 10:26:59;;;;;;;4.40;4.00;;;18.10;94.50;;;;;;4946313;28;20452;-67
2023/10/06 10:29:25;;;;;;;6.60;3.90;;;18.10;94.40;;;;;;4947281;28;20844;-67
2023/10/06 10:32:01;;;;;;;7.07;3.67;;;18.10;94.40;;;;;;4947075;28;20470;-68
2023/10/06 10:34:33;;;;;;;4.80;3.50;;;18.10;94.30;;;;;;4947194;28;20508;-67
2023/10/06 10:37:05;;;;;;;6.93;3.47;;;18.10;94.40;;;;;;4964785;28;20992;-67
2023/10/06 10:39:43;;;;;;;5.40;4.17;;;18.20;94.40;;;;;;4964809;28;20416;-67
2023/10/06 10:42:12;;;;;;;6.60;3.70;;;18.20;94.30;;;;;;4946996;28;20808;-67
2023/10/06 10:44:40;;;;;;;4.60;3.83;;;18.20;94.30;;;;;;4964334;28;20521;-67
2023/10/06 10:47:06;;;;;;;8.13;4.47;;;18.20;94.30;;;;;;4964477;28;20427;-68
2023/10/06 10:49:35;;;;;;;7.80;4.07;;;18.20;94.30;;;;;;4930679;28;20414;-67
2023/10/06 10:52:02;;;;;;;10.00;4.27;;;18.20;94.30;;;;;;4964669;28;20691;-67
2023/10/06 10:54:32;;;;;;;6.17;4.73;;;18.20;94.20;;;;;;4962462;28;20455;-68
2023/10/06 10:57:31;;;;;;;4.57;3.90;;;18.30;94.30;;;;;;4926336;29;20438;-67
2023/10/06 11:02:52;;;;;;;6.67;4.33;;;18.30;94.20;;;;;;4946907;28;20466;-69
2023/10/06 11:05:21;;;;;;;5.53;4.37;;;18.30;94.20;;;;;;4947276;28;20448;-69
2023/10/06 11:07:57;;;;;;;6.27;4.37;;;18.30;94.10;;;;;;4930929;28;20439;-69
2023/10/06 11:10:24;;;;;;;4.97;4.00;;;18.30;94.00;;;;;;4947283;28;20441;-69
2023/10/06 11:13:17;;;;;;;6.87;4.43;;;18.30;94.00;;;;;;4962623;28;20434;-69
2023/10/06 11:15:49;;;;;;;8.50;4.40;;;18.40;94.00;;;;;;4946632;28;20932;-68
2023/10/06 11:18:17;;;;;;;7.00;4.40;;;18.40;94.00;;;;;;4946843;28;21021;-70
2023/10/06 11:20:48;;;;;;;8.67;4.43;;;18.40;94.00;;;;;;4946781;28;20421;-69
2023/10/06 11:23:17;;;;;;;4.80;3.87;;;18.40;94.00;;;;;;4964749;28;20416;-69
2023/10/06 11:25:48;;;;;;;5.40;4.70;;;18.40;94.00;;;;;;4963822;28;20433;-69
2023/10/06 11:28:15;;;;;;;8.43;4.67;;;18.50;94.00;;;;;;4963219;28;20908;-69
2023/10/06 11:30:42;;;;;;;6.10;4.30;;;18.50;93.90;;;;;;4946631;28;21023;-69
2023/10/06 11:33:11;;;;;;;6.47;4.00;;;18.50;93.90;;;;;;4946316;28;20430;-68
2023/10/06 11:35:38;;;;;;;4.40;4.00;;;18.50;93.80;;;;;;4931027;28;20443;-69
2023/10/06 11:38:15;;;;;;;5.43;3.80;;;18.50;93.80;;;;;;4929726;28;20514;-69
2023/10/06 11:40:44;;;;;;;6.33;4.70;;;18.60;93.80;;;;;;4945881;28;20425;-69
2023/10/06 11:43:14;;;;;;;5.70;4.17;;;18.60;93.70;;;;;;4940621;28;20425;-69
2023/10/06 11:45:44;;;;;;;8.47;4.40;;;18.60;93.70;;;;;;4946231;28;20452;-69
2023/10/06 11:48:31;;;;;;;5.07;4.00;;;18.60;93.70;;;;;;4951731;28;20797;-69
2023/10/06 11:51:12;;;;;;;7.60;4.03;;;18.60;93.70;;;;;;4946159;28;20586;-69
2023/10/06 11:53:40;;;;;;;7.50;4.73;;;18.60;93.60;;;;;;4927059;29;20434;-69
2023/10/06 11:56:10;;;;;;;6.00;4.40;;;18.70;93.70;;;;;;4944714;29;21092;-69
2023/10/06 11:58:40;;;;;;;6.20;3.60;;;18.70;93.70;;;;;;4928391;29;20462;-69
2023/10/06 12:01:42;;;;;;;6.13;5.00;;;18.70;93.70;;;;;;4927015;29;20473;-69
2023/10/06 12:04:30;;;;;;;4.80;4.10;;;18.70;93.70;;;;;;4953542;28;20461;-68
2023/10/06 12:07:01;;;;;;;6.27;4.33;;;18.70;93.70;;;;;;4946279;28;20965;-69
2023/10/06 12:09:34;;;;;;;6.53;4.30;;;18.80;93.80;;;;;;4946328;28;20431;-69
2023/10/06 12:12:01;;;;;;;8.63;4.67;;;18.80;93.80;;;;;;4944664;28;20463;-69
2023/10/06 12:14:31;;;;;;;4.40;4.00;;;18.80;93.80;;;;;;4945870;28;20957;-69
2023/10/06 12:16:58;;;;;;;5.73;4.40;;;18.80;93.90;;;;;;4946260;28;20457;-69
2023/10/06 12:19:24;;;;;;;9.33;5.00;;;18.80;93.90;;;;;;4946223;28;20465;-69
2023/10/06 12:21:51;;;;;;;5.20;4.10;;;18.80;93.90;;;;;;4930509;28;21168;-68
2023/10/06 12:24:18;;;;;;;6.17;4.00;;;18.90;93.90;;;;;;4964063;28;20429;-69
2023/10/06 12:26:53;;;;;;;5.77;4.40;;;18.90;93.90;;;;;;4946007;28;20799;-70
2023/10/06 12:29:22;;;;;;;6.17;4.10;;;18.90;93.80;;;;;;4946564;28;20434;-70
2023/10/06 12:31:48;;;;;;;7.03;4.50;;;18.90;93.70;;;;;;4946584;28;20453;-70
2023/10/06 12:34:19;;;;;;;6.17;4.37;;;18.90;93.70;;;;;;4946299;28;20468;-70
2023/10/06 12:36:48;;;;;;;4.97;3.87;;;18.90;93.60;;;;;;4946409;28;20433;-69
2023/10/06 12:39:17;;;;;;;6.70;5.17;;;19.10;93.70;;;;;;4964173;28;20480;-70
2023/10/06 12:41:46;;;;;;;5.33;4.03;;;19.00;93.60;;;;;;4946068;28;20496;-70
2023/10/06 12:44:13;;;;;;;6.83;4.10;;;19.00;93.60;;;;;;4945634;28;20613;-70
2023/10/06 12:46:40;;;;;;;8.93;4.73;;;19.00;94.00;;;;;;4963878;28;20430;-70
2023/10/06 12:49:18;;;;;;;8.10;4.20;;;19.00;93.60;;;;;;4963145;28;20453;-70
2023/10/06 12:51:44;;;;;;;8.17;4.80;;;19.00;93.70;;;;;;4929278;28;20457;-72
2023/10/06 12:54:14;;;;;;;9.73;5.07;;;19.00;93.60;;;;;;4926603;28;20666;-72
2023/10/06 12:56:44;;;;;;;4.60;4.07;;;19.10;93.60;;;;;;4959683;28;20536;-71
2023/10/06 12:59:13;;;;;;;5.83;4.40;;;19.10;93.50;;;;;;4943772;28;20476;-73
2023/10/06 13:01:42;;;;;;;7.10;4.10;;;19.10;93.60;;;;;;4960278;28;20536;-71
2023/10/06 13:04:13;;;;;;;4.90;3.60;;;19.10;93.70;;;;;;4941135;28;20435;-71
2023/10/06 13:06:40;;;;;;;7.60;3.93;;;19.10;93.70;;;;;;4939631;29;20453;-71
2023/10/06 13:09:08;;;;;;;5.30;3.67;;;19.10;93.70;;;;;;4956232;28;20468;-71
2023/10/06 13:11:37;;;;;;;6.10;4.33;;;19.10;93.70;;;;;;4925729;28;20821;-71
2023/10/06 13:14:03;;;;;;;8.27;4.27;;;19.20;93.80;;;;;;4942100;28;20438;-71
2023/10/06 13:16:36;;;;;;;10.03;4.57;;;19.20;93.70;;;;;;4959509;28;20463;-71
2023/10/06 13:19:02;;;;;;;8.83;4.93;;;19.20;93.70;;;;;;4942366;28;20450;-71
2023/10/06 13:21:31;;;;;;;5.13;4.20;;;19.20;93.60;;;;;;4941622;28;20482;-71
2023/10/06 13:23:58;;;;;;;7.27;3.90;;;19.20;93.60;;;;;;4959200;28;20993;-71